createdAt,value
2019-02-27T00:01:10.318Z,28.39
2019-02-27T00:03:17.203Z,28.73
2019-02-27T00:05:24.635Z,28.50
2019-02-27T00:07:32.041Z,28.60
2019-02-27T00:09:39.317Z,28.78
2019-02-27T00:11:46.849Z,28.61
2019-02-27T00:13:57.635Z,28.74
2019-02-27T00:16:03.677Z,28.94
2019-02-27T00:18:11.509Z,28.70
2019-02-27T00:20:20.257Z,29.19
2019-02-27T00:22:27.773Z,29.38
2019-02-27T00:24:34.975Z,29.89
2019-02-27T00:26:42.469Z,29.84
2019-02-27T00:28:49.861Z,31.20
2019-02-27T00:30:56.603Z,29.92
2019-02-27T00:33:03.528Z,28.40
2019-02-27T00:35:10.261Z,30.33
2019-02-27T00:37:19.012Z,28.87
2019-02-27T00:39:26.313Z,29.16
2019-02-27T00:41:33.080Z,28.34
2019-02-27T00:43:39.828Z,28.33
2019-02-27T00:45:46.586Z,28.34
2019-02-27T00:47:53.842Z,28.38
2019-02-27T00:50:05.774Z,28.24
2019-02-27T00:52:09.463Z,28.78
2019-02-27T00:54:16.255Z,28.77
2019-02-27T00:56:23.038Z,28.51
2019-02-27T00:58:30.355Z,28.93
2019-02-27T01:00:39.342Z,28.64
2019-02-27T01:02:45.556Z,28.90
2019-02-27T01:04:52.790Z,29.34
2019-02-27T01:06:59.558Z,29.11
2019-02-27T01:09:07.418Z,28.88
2019-02-27T01:11:18.196Z,29.05
2019-02-27T01:13:22.981Z,29.14
2019-02-27T01:15:30.822Z,29.15
2019-02-27T01:17:38.248Z,29.27
2019-02-27T01:19:45.015Z,29.39
2019-02-27T01:21:52.293Z,29.37
2019-02-27T01:24:00.617Z,29.56
2019-02-27T01:26:07.334Z,29.59
2019-02-27T01:28:14.641Z,29.68
2019-02-27T01:30:23.889Z,29.73
2019-02-27T01:32:31.136Z,29.75
2019-02-27T01:34:38.453Z,29.93
2019-02-27T01:36:45.239Z,29.75
2019-02-27T01:38:51.989Z,29.95
2019-02-27T01:40:59.663Z,29.99
2019-02-27T01:43:06.611Z,29.94
2019-02-27T01:45:20.592Z,29.98
2019-02-27T01:47:25.590Z,30.03
2019-02-27T01:49:32.378Z,29.97
2019-02-27T01:51:39.653Z,30.16
2019-02-27T01:53:46.401Z,29.94
2019-02-27T01:55:56.234Z,29.63
2019-02-27T01:58:02.630Z,29.72
2019-02-27T02:00:09.568Z,29.24
2019-02-27T02:02:16.795Z,29.25
2019-02-27T02:04:23.529Z,29.34
2019-02-27T02:06:32.501Z,29.19
2019-02-27T02:08:39.830Z,29.13
2019-02-27T02:10:46.597Z,29.15
2019-02-27T02:12:56.791Z,29.00
2019-02-27T02:15:36.433Z,28.87
2019-02-27T02:18:17.260Z,28.47
2019-02-27T02:20:47.792Z,28.62
2019-02-27T02:23:16.050Z,28.45
2019-02-27T02:26:18.168Z,28.54
2019-02-27T02:29:12.401Z,28.51
2019-02-27T02:31:46.049Z,28.42
2019-02-27T02:34:27.341Z,28.39
2019-02-27T02:37:12.661Z,28.51
2019-02-27T02:39:44.555Z,28.62
2019-02-27T02:42:07.429Z,28.71
2019-02-27T02:44:25.115Z,28.53
2019-02-27T02:47:05.370Z,28.63
2019-02-27T02:49:42.077Z,28.23
2019-02-27T02:52:40.760Z,28.48
2019-02-27T02:55:15.051Z,28.54
2019-02-27T02:58:12.227Z,28.74
2019-02-27T03:00:57.631Z,28.99
2019-02-27T03:03:35.978Z,29.11
2019-02-27T03:06:15.072Z,29.26
2019-02-27T03:08:56.347Z,29.35
2019-02-27T03:11:45.200Z,29.37
2019-02-27T03:14:26.679Z,29.48
2019-02-27T03:17:17.891Z,29.51
2019-02-27T03:19:41.661Z,29.66
2019-02-27T03:22:05.605Z,29.68
2019-02-27T03:25:04.215Z,29.82
2019-02-27T03:27:45.244Z,29.97
2019-02-27T03:30:00.715Z,30.28
2019-02-27T03:32:18.698Z,30.06
2019-02-27T03:35:15.284Z,30.22
2019-02-27T03:37:48.569Z,30.14
2019-02-27T03:40:24.167Z,30.14
2019-02-27T03:42:51.901Z,29.88
2019-02-27T03:45:24.175Z,29.84
2019-02-27T03:47:40.463Z,29.75
2019-02-27T03:50:39.250Z,29.75
2019-02-27T03:53:10.859Z,29.84
2019-02-27T03:56:22.128Z,30.55
2019-02-27T03:58:55.734Z,29.66
2019-02-27T04:01:47.982Z,29.19
2019-02-27T04:04:13.991Z,28.88
2019-02-27T04:06:41.578Z,29.35
2019-02-27T04:09:04.353Z,28.96
2019-02-27T04:11:13.913Z,28.55
2019-02-27T04:13:26.466Z,28.32
2019-02-27T04:15:30.408Z,28.47
2019-02-27T04:17:34.026Z,28.41
2019-02-27T04:19:41.866Z,28.44
2019-02-27T04:21:48.923Z,28.58
2019-02-27T04:23:56.905Z,28.70
2019-02-27T04:26:05.746Z,28.78
2019-02-27T04:28:13.221Z,29.01
2019-02-27T04:30:20.553Z,29.27
2019-02-27T04:32:28.593Z,29.46
2019-02-27T04:34:36.787Z,29.42
2019-02-27T04:36:47.007Z,29.16
2019-02-27T04:38:53.185Z,29.20
2019-02-27T04:41:01.724Z,29.65
2019-02-27T04:43:10.138Z,29.86
2019-02-27T04:45:16.863Z,28.88
2019-02-27T04:47:28.833Z,28.49
2019-02-27T04:49:34.772Z,28.40
2019-02-27T04:51:43.097Z,28.57
2019-02-27T04:53:50.253Z,28.46
2019-02-27T04:55:57.020Z,28.61
2019-02-27T04:58:08.646Z,28.64
2019-02-27T05:00:14.459Z,28.81
2019-02-27T05:02:22.444Z,28.85
2019-02-27T05:04:34.951Z,28.98
2019-02-27T05:06:39.223Z,28.95
2019-02-27T05:08:46.629Z,29.03
2019-02-27T05:10:53.921Z,29.12
2019-02-27T05:13:01.326Z,30.16
2019-02-27T05:15:08.860Z,29.49
2019-02-27T05:17:21.166Z,29.43
2019-02-27T05:19:25.201Z,29.73
2019-02-27T05:21:31.998Z,29.52
2019-02-27T05:23:39.630Z,29.24
2019-02-27T05:25:47.512Z,29.03
2019-02-27T05:27:55.586Z,28.43
2019-02-27T05:30:02.454Z,28.44
2019-02-27T05:32:09.697Z,28.53
2019-02-27T05:34:16.592Z,28.55
2019-02-27T05:36:23.332Z,28.61
2019-02-27T05:38:30.678Z,28.63
2019-02-27T05:40:38.675Z,28.74
2019-02-27T05:42:45.573Z,28.80
2019-02-27T05:44:55.689Z,28.87
2019-02-27T05:47:02.734Z,28.97
2019-02-27T05:49:09.915Z,29.02
2019-02-27T05:51:16.674Z,29.20
2019-02-27T05:53:24.086Z,29.42
2019-02-27T05:55:31.363Z,29.70
2019-02-27T05:57:38.131Z,29.41
2019-02-27T05:59:45.431Z,29.57
2019-02-27T06:01:52.748Z,29.14
2019-02-27T06:03:59.980Z,28.84
2019-02-27T06:06:06.901Z,28.73
2019-02-27T06:08:15.404Z,28.62
2019-02-27T06:10:23.602Z,28.96
2019-02-27T06:12:30.495Z,28.39
2019-02-27T06:14:37.793Z,28.37
2019-02-27T06:16:45.012Z,28.52
2019-02-27T06:18:56.049Z,28.60
2019-02-27T06:21:01.370Z,28.76
2019-02-27T06:23:08.484Z,28.75
2019-02-27T06:25:21.962Z,28.93
2019-02-27T06:27:25.883Z,28.90
2019-02-27T06:29:33.090Z,28.81
2019-02-27T06:31:39.861Z,28.92
2019-02-27T06:33:47.151Z,28.99
2019-02-27T06:35:55.130Z,28.96
2019-02-27T06:38:01.919Z,29.08
2019-02-27T06:40:09.411Z,29.08
2019-02-27T06:42:16.725Z,29.25
2019-02-27T06:44:23.424Z,29.21
2019-02-27T06:46:30.161Z,29.28
2019-02-27T06:48:36.864Z,29.34
2019-02-27T06:50:44.078Z,29.93
2019-02-27T06:52:50.825Z,29.68
2019-02-27T06:54:57.596Z,29.46
2019-02-27T06:57:07.489Z,29.41
2019-02-27T06:59:14.027Z,29.74
2019-02-27T07:01:21.097Z,29.24
2019-02-27T07:03:29.523Z,29.18
2019-02-27T07:05:36.300Z,28.98
2019-02-27T07:07:44.389Z,28.83
2019-02-27T07:09:51.499Z,29.08
2019-02-27T07:11:59.234Z,28.74
2019-02-27T07:14:06.856Z,28.77
2019-02-27T07:16:14.188Z,29.09
2019-02-27T07:18:23.957Z,28.98
2019-02-27T07:20:30.662Z,29.26
2019-02-27T07:22:37.435Z,29.35
2019-02-27T07:24:44.558Z,29.61
2019-02-27T07:26:51.854Z,30.00
2019-02-27T07:28:58.978Z,29.71
2019-02-27T07:31:05.733Z,29.34
2019-02-27T07:33:13.093Z,28.97
2019-02-27T07:35:20.287Z,29.12
2019-02-27T07:37:27.035Z,29.00
2019-02-27T07:39:34.847Z,28.70
2019-02-27T07:41:42.061Z,28.58
2019-02-27T07:43:48.803Z,28.74
2019-02-27T07:45:56.627Z,28.44
2019-02-27T07:48:03.818Z,28.54
2019-02-27T07:50:12.953Z,28.63
2019-02-27T07:52:20.826Z,28.64
2019-02-27T07:54:29.002Z,28.98
2019-02-27T07:56:37.427Z,28.79
2019-02-27T07:58:44.195Z,28.92
2019-02-27T08:00:50.981Z,28.94
2019-02-27T08:02:58.566Z,29.02
2019-02-27T08:05:06.909Z,29.06
2019-02-27T08:07:13.653Z,29.06
2019-02-27T08:09:20.397Z,29.19
2019-02-27T08:11:27.770Z,29.24
2019-02-27T08:13:34.475Z,29.28
2019-02-27T08:15:41.438Z,29.22
2019-02-27T08:17:48.766Z,29.23
2019-02-27T08:19:55.483Z,29.41
2019-02-27T08:22:02.754Z,29.28
2019-02-27T08:24:09.539Z,29.26
2019-02-27T08:26:18.278Z,29.38
2019-02-27T08:28:24.706Z,29.69
2019-02-27T08:30:31.522Z,29.74
2019-02-27T08:32:38.585Z,29.48
2019-02-27T08:34:46.214Z,29.48
2019-02-27T08:36:53.354Z,29.14
2019-02-27T08:39:00.022Z,28.93
2019-02-27T08:41:06.721Z,28.75
2019-02-27T08:43:14.026Z,29.03
2019-02-27T08:45:20.928Z,28.75
2019-02-27T08:47:28.086Z,28.76
2019-02-27T08:49:34.916Z,29.01
2019-02-27T08:51:42.731Z,29.12
2019-02-27T08:53:49.401Z,29.09
2019-02-27T08:55:56.539Z,29.20
2019-02-27T08:58:03.274Z,29.24
2019-02-27T09:00:14.439Z,29.45
2019-02-27T09:02:24.149Z,29.42
2019-02-27T09:04:30.371Z,29.54
2019-02-27T09:06:37.562Z,29.49
2019-02-27T09:08:45.036Z,29.45
2019-02-27T09:10:52.300Z,29.65
2019-02-27T09:13:05.359Z,29.94
2019-02-27T09:15:08.242Z,29.90
2019-02-27T09:17:16.559Z,29.69
2019-02-27T09:19:23.325Z,29.62
2019-02-27T09:21:30.660Z,29.50
2019-02-27T09:23:38.189Z,29.39
2019-02-27T09:25:45.526Z,29.20
2019-02-27T09:27:52.954Z,29.16
2019-02-27T09:29:59.661Z,29.30
2019-02-27T09:32:09.282Z,29.06
2019-02-27T09:34:16.298Z,29.19
2019-02-27T09:36:23.487Z,29.13
2019-02-27T09:38:30.806Z,28.92
2019-02-27T09:40:38.913Z,28.99
2019-02-27T09:42:46.116Z,28.92
2019-02-27T09:44:54.420Z,28.86
2019-02-27T09:47:01.159Z,28.84
2019-02-27T09:49:08.238Z,28.95
2019-02-27T09:51:15.899Z,29.14
2019-02-27T09:53:22.663Z,29.28
2019-02-27T09:55:29.375Z,29.28
2019-02-27T09:57:36.773Z,29.47
2019-02-27T09:59:44.873Z,29.49
2019-02-27T10:01:51.781Z,29.48
2019-02-27T10:03:58.557Z,29.54
2019-02-27T10:06:08.720Z,29.41
2019-02-27T10:08:14.899Z,29.49
2019-02-27T10:10:21.987Z,29.54
2019-02-27T10:12:28.894Z,29.71
2019-02-27T10:14:35.953Z,30.00
2019-02-27T10:16:43.849Z,29.84
2019-02-27T10:18:54.684Z,29.70
2019-02-27T10:20:59.846Z,29.59
2019-02-27T10:23:06.811Z,29.41
2019-02-27T10:25:14.253Z,29.49
2019-02-27T10:27:20.997Z,29.27
2019-02-27T10:29:28.258Z,29.10
2019-02-27T10:31:35.068Z,29.13
2019-02-27T10:33:42.998Z,29.34
2019-02-27T10:35:50.830Z,29.25
2019-02-27T10:37:57.899Z,29.22
2019-02-27T10:40:04.799Z,29.43
2019-02-27T10:42:11.598Z,29.57
2019-02-27T10:44:18.354Z,29.63
2019-02-27T10:46:25.497Z,29.51
2019-02-27T10:48:32.242Z,29.58
2019-02-27T10:50:39.025Z,29.64
2019-02-27T10:52:45.768Z,29.66
2019-02-27T10:54:52.490Z,30.21
2019-02-27T10:56:59.275Z,29.86
2019-02-27T10:59:06.061Z,29.73
2019-02-27T11:01:13.426Z,29.66
2019-02-27T11:03:23.656Z,29.50
2019-02-27T11:05:31.530Z,29.57
2019-02-27T11:07:39.092Z,30.14
2019-02-27T11:09:45.893Z,29.51
2019-02-27T11:11:53.937Z,29.14
2019-02-27T11:14:01.842Z,29.11
2019-02-27T11:16:09.693Z,29.35
2019-02-27T11:18:16.403Z,29.40
2019-02-27T11:20:24.676Z,29.61
2019-02-27T11:22:32.381Z,29.65
2019-02-27T11:24:39.631Z,29.69
2019-02-27T11:26:47.033Z,29.80
2019-02-27T11:28:54.331Z,29.73
2019-02-27T11:31:01.183Z,29.78
2019-02-27T11:33:08.321Z,29.67
2019-02-27T11:35:16.392Z,29.71
2019-02-27T11:37:23.130Z,29.91
2019-02-27T11:39:32.930Z,30.05
2019-02-27T11:41:39.811Z,30.20
2019-02-27T11:43:46.548Z,30.06
2019-02-27T11:45:57.815Z,30.01
2019-02-27T11:48:04.324Z,29.88
2019-02-27T11:50:14.703Z,29.76
2019-02-27T11:52:22.588Z,29.69
2019-02-27T11:54:29.350Z,29.74
2019-02-27T11:56:36.098Z,29.74
2019-02-27T11:58:43.933Z,29.32
2019-02-27T12:00:51.774Z,29.38
2019-02-27T12:02:58.976Z,29.55
2019-02-27T12:05:05.845Z,29.38
2019-02-27T12:07:17.209Z,29.20
2019-02-27T12:09:21.489Z,29.42
2019-02-27T12:11:28.617Z,29.25
2019-02-27T12:13:35.578Z,29.19
2019-02-27T12:15:44.183Z,29.09
2019-02-27T12:17:51.136Z,29.20
2019-02-27T12:19:58.084Z,29.28
2019-02-27T12:22:05.552Z,29.46
2019-02-27T12:24:13.458Z,29.86
2019-02-27T12:26:20.730Z,29.81
2019-02-27T12:28:28.032Z,30.03
2019-02-27T12:30:37.344Z,29.93
2019-02-27T12:32:44.471Z,30.30
2019-02-27T12:34:51.902Z,30.21
2019-02-27T12:36:58.652Z,30.43
2019-02-27T12:39:06.508Z,30.24
2019-02-27T12:41:14.459Z,29.99
2019-02-27T12:43:21.387Z,30.11
2019-02-27T12:45:29.691Z,30.33
2019-02-27T12:47:40.689Z,29.66
2019-02-27T12:49:47.126Z,29.63
2019-02-27T12:51:54.412Z,29.58
2019-02-27T12:54:01.187Z,29.35
2019-02-27T12:56:10.770Z,29.39
2019-02-27T12:58:18.120Z,29.38
2019-02-27T13:00:27.263Z,29.48
2019-02-27T13:02:35.802Z,29.46
2019-02-27T13:04:43.031Z,29.17
2019-02-27T13:06:49.781Z,29.03
2019-02-27T13:08:57.870Z,28.85
2019-02-27T13:11:05.317Z,28.89
2019-02-27T13:13:13.814Z,28.67
2019-02-27T13:15:21.965Z,28.66
2019-02-27T13:17:28.736Z,28.63
2019-02-27T13:19:38.502Z,28.63
2019-02-27T13:21:45.189Z,28.52
2019-02-27T13:23:52.014Z,28.67
2019-02-27T13:26:00.428Z,28.79
2019-02-27T13:28:07.888Z,29.18
2019-02-27T13:30:17.329Z,29.18
2019-02-27T13:32:26.555Z,29.29
2019-02-27T13:34:32.514Z,29.28
2019-02-27T13:36:40.001Z,29.30
2019-02-27T13:38:49.520Z,29.20
2019-02-27T13:40:55.764Z,29.99
2019-02-27T13:43:03.538Z,29.65
2019-02-27T13:45:13.471Z,29.91
2019-02-27T13:47:20.860Z,30.21
2019-02-27T13:49:28.439Z,29.76
2019-02-27T13:51:37.258Z,29.82
2019-02-27T13:53:44.872Z,29.77
2019-02-27T13:55:53.675Z,30.23
2019-02-27T13:58:03.740Z,30.17
2019-02-27T14:00:20.316Z,29.82
2019-02-27T14:02:25.865Z,29.75
2019-02-27T14:04:34.843Z,29.79
2019-02-27T14:06:43.497Z,29.64
2019-02-27T14:08:53.087Z,29.85
2019-02-27T14:11:02.803Z,29.93
2019-02-27T14:13:11.194Z,30.27
2019-02-27T14:15:19.631Z,30.13
2019-02-27T14:17:28.610Z,29.83
2019-02-27T14:19:38.860Z,29.54
2019-02-27T14:21:46.539Z,29.97
2019-02-27T14:23:54.960Z,29.99
2019-02-27T14:26:05.558Z,30.03
2019-02-27T14:28:12.072Z,29.97
2019-02-27T14:30:35.658Z,30.00
2019-02-27T14:32:47.350Z,29.67
2019-02-27T14:34:54.596Z,29.79
2019-02-27T14:37:01.900Z,29.87
2019-02-27T14:39:10.444Z,30.23
2019-02-27T14:41:17.769Z,30.07
2019-02-27T14:43:27.391Z,29.72
2019-02-27T14:45:34.111Z,29.54
2019-02-27T14:47:47.336Z,29.40
2019-02-27T18:00:44.271Z,34.43
2019-02-27T18:02:53.071Z,34.19
2019-02-27T18:05:00.976Z,33.29
2019-02-27T18:07:14.278Z,32.54
2019-02-27T18:09:29.542Z,32.27
2019-02-27T18:11:39.845Z,31.36
2019-02-27T18:14:03.085Z,30.88
2019-02-27T18:16:12.607Z,30.42
2019-02-27T18:18:58.852Z,30.25
2019-02-27T18:21:13.383Z,30.01
2019-02-27T18:23:31.516Z,30.01
2019-02-27T18:25:42.058Z,30.40
2019-02-27T18:27:58.659Z,30.02
2019-02-27T18:30:02.977Z,29.22
2019-02-27T18:32:13.480Z,28.90
2019-02-27T18:34:23.460Z,28.71
2019-02-27T18:37:04.274Z,28.74
2019-02-27T18:39:14.471Z,28.54
2019-02-27T18:41:31.036Z,28.58
2019-02-27T18:44:08.085Z,28.38
2019-02-27T18:46:15.636Z,28.19
2019-02-27T18:49:38.297Z,28.31
2019-02-27T18:53:15.546Z,29.30
2019-02-27T18:55:31.411Z,28.17
2019-02-27T18:57:47.784Z,28.13
2019-02-27T19:00:08.167Z,28.57
2019-02-27T19:02:27.227Z,29.67
2019-02-27T19:04:37.732Z,32.21
2019-02-27T19:06:47.012Z,30.73
2019-02-27T19:08:55.423Z,28.00
2019-02-27T19:11:03.046Z,27.99
2019-02-27T19:13:10.238Z,27.60
2019-02-27T19:15:19.539Z,27.58
2019-02-27T19:17:31.509Z,27.74
2019-02-27T19:19:48.180Z,27.85
2019-02-27T19:21:53.659Z,28.01
2019-02-27T19:24:00.981Z,28.18
2019-02-27T19:26:21.109Z,28.44
2019-02-27T19:28:31.070Z,28.62
2019-02-27T19:30:44.052Z,29.00
2019-02-27T19:32:51.641Z,29.14
2019-02-27T19:35:00.244Z,29.19
2019-02-27T19:37:10.151Z,29.12
2019-02-27T19:39:21.732Z,28.96
2019-02-27T19:41:38.722Z,28.93
2019-02-27T19:43:54.950Z,29.25
2019-02-27T19:46:01.004Z,29.53
2019-02-27T19:48:09.885Z,29.37
2019-02-27T19:50:18.346Z,29.22
2019-02-27T19:52:26.958Z,29.29
2019-02-27T19:54:41.593Z,29.30
2019-02-27T19:56:48.857Z,29.38
2019-02-27T19:58:59.354Z,29.27
2019-02-27T20:01:09.086Z,29.28
2019-02-27T20:03:16.788Z,29.19
2019-02-27T20:05:24.335Z,29.25
2019-02-27T20:07:32.941Z,29.89
2019-02-27T20:09:41.617Z,29.53
2019-02-27T20:11:49.352Z,30.04
2019-02-27T20:14:01.949Z,31.12
2019-02-27T20:16:06.903Z,31.67
2019-02-27T20:18:14.354Z,30.00
2019-02-27T20:20:22.884Z,29.66
2019-02-27T20:22:29.932Z,29.11
2019-02-27T20:24:38.444Z,28.77
2019-02-27T20:26:45.838Z,29.21
2019-02-27T20:28:53.882Z,30.45
2019-02-27T20:31:01.789Z,28.66
2019-02-27T20:33:09.684Z,28.73
2019-02-27T20:35:17.334Z,28.80
2019-02-27T20:37:27.063Z,28.69
2019-02-27T20:39:35.941Z,28.79
2019-02-27T20:41:44.093Z,29.08
2019-02-27T20:43:51.330Z,29.09
2019-02-27T20:45:58.693Z,29.02
2019-02-27T20:48:06.534Z,29.14
2019-02-27T20:50:21.838Z,29.17
2019-02-27T20:52:29.078Z,29.20
2019-02-27T20:54:37.719Z,29.24
2019-02-27T20:56:45.217Z,29.27
2019-02-27T20:58:54.302Z,29.28
2019-02-27T21:01:01.326Z,29.46
2019-02-27T21:03:08.993Z,29.98
2019-02-27T21:05:16.447Z,29.93
2019-02-27T21:07:26.101Z,29.82
2019-02-27T21:09:33.349Z,29.40
2019-02-27T21:11:41.086Z,29.27
2019-02-27T21:13:49.607Z,29.08
2019-02-27T21:15:57.170Z,28.98
2019-02-27T21:18:05.782Z,28.86
2019-02-27T21:20:14.313Z,28.87
2019-02-27T21:22:25.256Z,29.75
2019-02-27T21:24:31.694Z,28.90
2019-02-27T21:26:39.636Z,29.20
2019-02-27T21:28:57.744Z,29.39
2019-02-27T21:30:55.760Z,28.98
2019-02-27T21:33:02.993Z,29.20
2019-02-27T21:35:10.297Z,29.22
2019-02-27T21:37:18.578Z,29.55
2019-02-27T21:39:28.348Z,29.39
2019-02-27T21:41:35.680Z,29.13
2019-02-27T21:43:43.145Z,29.45
2019-02-27T21:45:51.199Z,30.04
2019-02-27T21:47:59.153Z,29.29
2019-02-27T21:50:07.263Z,29.42
2019-02-27T21:52:22.423Z,29.58
2019-02-27T21:54:29.502Z,29.17
2019-02-27T21:56:39.438Z,29.23
2019-02-27T21:58:46.735Z,29.88
2019-02-27T22:00:53.932Z,29.32
2019-02-27T22:03:05.008Z,29.38
2019-02-27T22:05:11.023Z,29.38
2019-02-27T22:07:18.434Z,29.12
2019-02-27T22:09:27.118Z,28.88
2019-02-27T22:11:34.872Z,29.47
2019-02-27T22:13:44.953Z,29.53
2019-02-27T22:15:55.772Z,29.88
2019-02-27T22:18:01.895Z,29.51
2019-02-27T22:20:09.734Z,30.06
2019-02-27T22:22:17.248Z,31.38
2019-02-27T22:24:25.128Z,32.71
2019-02-27T22:26:34.170Z,30.19
2019-02-27T22:28:42.048Z,32.13
2019-02-27T22:30:49.267Z,29.70
2019-02-27T22:32:58.033Z,29.60
2019-02-27T22:35:06.358Z,31.59
2019-02-27T22:37:17.482Z,29.03
2019-02-27T22:39:24.352Z,28.68
2019-02-27T22:41:31.435Z,29.10
2019-02-27T22:43:38.708Z,28.59
2019-02-27T22:45:47.148Z,29.35
2019-02-27T22:47:54.707Z,29.99
2019-02-27T22:50:05.866Z,28.86
2019-02-27T22:52:11.675Z,29.29
2019-02-27T22:54:19.341Z,28.95
2019-02-27T22:56:26.662Z,29.04
2019-02-27T22:58:33.883Z,29.38
2019-02-27T23:01:05.016Z,29.66
2019-02-27T23:03:12.399Z,29.51
2019-02-27T23:05:19.702Z,30.00
2019-02-27T23:07:27.338Z,29.64
2019-02-27T23:09:36.844Z,30.38
2019-02-27T23:11:43.757Z,29.80
2019-02-27T23:13:52.250Z,31.12
2019-02-27T23:15:59.449Z,31.79
2019-02-27T23:18:07.025Z,31.92
2019-02-27T23:20:17.547Z,31.69
2019-02-27T23:22:25.282Z,32.44
2019-02-27T23:24:33.503Z,33.15
2019-02-27T23:26:40.568Z,30.58
2019-02-27T23:28:49.679Z,29.44
2019-02-27T23:30:57.634Z,29.71
2019-02-27T23:33:05.781Z,28.93
2019-02-27T23:35:16.726Z,28.79
2019-02-27T23:37:23.328Z,29.00
2019-02-27T23:39:30.686Z,29.57
2019-02-27T23:41:38.036Z,30.52
2019-02-27T23:43:45.443Z,29.84
2019-02-27T23:45:54.745Z,29.28
2019-02-27T23:48:03.935Z,29.70
2019-02-27T23:50:11.925Z,29.59
2019-02-27T23:52:24.063Z,29.36
2019-02-27T23:54:35.413Z,29.45
2019-02-27T23:56:41.051Z,29.75
2019-02-27T23:58:48.597Z,29.53
